Time;durP1;ratioP1;P1;durP2;ratioP2;P2;SDS_P1;SDS_P2;PMS_P1;PMS_P2;Temp;Humidity;BMP_temperature;BMP_pressure;BME280_temperature;BME280_humidity;BME280_pressure;Samples;Min_cycle;Max_cycle;Signal;HPM_P1;HPM_P2
2024/04/18 00:00:01;;;;;;;4.37;2.83;;;;;;;9.42;89.29;98899.02;1806407;79;20978;-72
2024/04/18 00:02:31;;;;;;;6.50;3.50;;;;;;;9.42;89.33;98891.66;1804772;79;20985;-73
2024/04/18 00:05:01;;;;;;;5.87;3.33;;;;;;;9.44;89.32;98886.80;1806236;79;21006;-71
2024/04/18 00:07:32;;;;;;;4.85;3.00;;;;;;;9.46;89.42;98881.10;1806339;79;21025;-73
2024/04/18 00:10:17;;;;;;;5.70;3.70;;;;;;;9.49;89.50;98876.55;1806266;79;21036;-73
2024/04/18 00:12:45;;;;;;;6.35;3.02;;;;;;;9.47;89.43;98869.11;1806231;79;21506;-73
2024/04/18 00:15:23;;;;;;;4.97;3.20;;;;;;;9.47;89.54;98866.37;1806305;79;21066;-73
2024/04/18 00:17:57;;;;;;;4.62;3.27;;;;;;;9.48;89.77;98859.84;1806293;79;21480;-71
2024/04/18 00:20:27;;;;;;;5.40;3.50;;;;;;;9.48;89.88;98865.31;1802802;79;21489;-72
2024/04/18 00:22:55;;;;;;;6.05;3.35;;;;;;;9.48;90.09;98865.31;1798373;80;21077;-71
2024/04/18 00:25:32;;;;;;;4.17;3.20;;;;;;;9.52;90.29;98869.26;1798047;80;20997;-73
2024/04/18 00:28:01;;;;;;;6.35;3.27;;;;;;;9.52;90.56;98871.45;1798114;79;21009;-73
2024/04/18 00:30:41;;;;;;;4.80;3.12;;;;;;;9.56;90.66;98870.47;1798109;79;21061;-72
2024/04/18 00:33:09;;;;;;;5.12;2.98;;;;;;;9.56;90.66;98876.47;1798276;80;21029;-73
2024/04/18 00:35:39;;;;;;;5.20;3.30;;;;;;;9.57;90.58;98880.34;1798026;79;21037;-72
2024/04/18 00:38:13;;;;;;;6.08;3.22;;;;;;;9.58;90.52;98882.02;1798097;80;21647;-72
2024/04/18 00:40:45;;;;;;;5.28;3.10;;;;;;;9.60;90.64;98878.52;1798224;79;20978;-71
2024/04/18 00:43:15;;;;;;;5.67;3.30;;;;;;;9.63;90.60;98871.76;1795186;79;21069;-72
2024/04/18 00:45:43;;;;;;;5.03;3.10;;;;;;;9.64;90.67;98865.22;1798006;79;20978;-72
2024/04/18 00:48:22;;;;;;;5.35;3.30;;;;;;;9.65;90.69;98869.62;1798093;80;20986;-72
2024/04/18 00:50:52;;;;;;;4.35;3.25;;;;;;;9.65;90.85;98869.09;1798112;79;21030;-73
2024/04/18 00:53:20;;;;;;;5.30;3.10;;;;;;;9.65;90.81;98871.00;1798132;79;20998;-72
2024/04/18 00:55:52;;;;;;;6.47;3.45;;;;;;;9.66;90.92;98872.13;1798003;79;20978;-73
2024/04/18 00:58:22;;;;;;;5.37;3.27;;;;;;;9.67;91.07;98873.80;1794837;80;21092;-72
2024/04/18 01:00:51;;;;;;;7.65;3.50;;;;;;;9.70;91.19;98877.98;1794493;80;20998;-72
2024/04/18 01:03:36;;;;;;;7.30;3.45;;;;;;;9.69;91.27;98879.05;1767615;79;21430;-72
2024/04/18 01:06:08;;;;;;;6.03;3.40;;;;;;;9.70;91.44;98881.55;1798093;79;21085;-73
2024/04/18 01:08:55;;;;;;;5.67;3.42;;;;;;;9.71;91.56;98885.95;1798176;79;21575;-73
2024/04/18 01:11:32;;;;;;;8.80;3.45;;;;;;;9.73;91.77;98883.83;1797973;80;21430;-72
2024/04/18 01:14:11;;;;;;;4.62;3.25;;;;;;;9.74;92.02;98886.86;1798121;79;21053;-72
2024/04/18 01:16:57;;;;;;;7.28;3.02;;;;;;;9.74;92.12;98890.97;1798111;79;21057;-73
2024/04/18 01:19:26;;;;;;;6.47;3.33;;;;;;;9.69;92.09;98893.55;1798241;80;21022;-73
2024/04/18 01:21:55;;;;;;;6.42;3.30;;;;;;;9.70;92.23;98899.33;1810869;79;21455;-76
2024/04/18 01:24:25;;;;;;;5.92;3.72;;;;;;;9.70;92.38;98895.22;1812581;79;21005;-76
2024/04/18 01:26:54;;;;;;;5.72;3.52;;;;;;;9.68;92.66;98891.88;1812473;79;21060;-77
2024/04/18 01:29:24;;;;;;;5.72;3.85;;;;;;;9.66;92.94;98890.44;1809896;79;21021;-76
2024/04/18 01:32:07;;;;;;;6.10;3.70;;;;;;;9.63;93.29;98893.63;1794935;79;21064;-78
2024/04/18 01:34:36;;;;;;;4.72;3.37;;;;;;;9.61;93.61;98897.96;1812560;79;21044;-79
2024/04/18 01:37:17;;;;;;;5.12;4.08;;;;;;;9.57;93.70;98894.02;1812452;79;21025;-79
2024/04/18 01:39:45;;;;;;;5.47;3.65;;;;;;;9.52;93.84;98890.59;1812332;79;21020;-76
2024/04/18 01:42:14;;;;;;;6.65;4.10;;;;;;;9.48;94.14;98891.28;1812388;79;21064;-79
2024/04/18 01:44:44;;;;;;;6.00;4.15;;;;;;;9.47;94.58;98888.24;1812407;79;21025;-78
2024/04/18 01:47:33;;;;;;;4.83;4.05;;;;;;;9.46;95.02;98899.70;1812221;79;21009;-79
2024/04/18 01:50:09;;;;;;;5.75;4.45;;;;;;;9.43;95.34;98902.06;1812531;79;21049;-81
2024/04/18 01:52:37;;;;;;;7.92;4.75;;;;;;;9.40;95.56;98899.78;1812457;79;21063;-83
2024/04/18 01:55:06;;;;;;;9.15;4.87;;;;;;;9.37;95.86;98887.94;1812715;79;21040;-81
2024/04/18 01:57:37;;;;;;;7.60;5.15;;;;;;;9.33;95.95;98885.35;1812501;79;21014;-80
2024/04/18 02:00:17;;;;;;;6.10;4.90;;;;;;;9.33;96.13;98882.62;1793418;79;21056;-80
2024/04/18 02:02:45;;;;;;;6.47;5.20;;;;;;;9.31;96.32;98865.61;1812620;79;21126;-82
2024/04/18 02:05:16;;;;;;;8.85;5.37;;;;;;;9.31;96.74;98864.25;1809251;79;21041;-81
2024/04/18 02:07:44;;;;;;;11.55;5.55;;;;;;;9.30;96.87;98868.88;1812340;79;21496;-81
2024/04/18 02:10:12;;;;;;;9.28;5.72;;;;;;;9.27;96.93;98875.33;1812867;79;21013;-82
2024/04/18 02:12:59;;;;;;;8.20;5.97;;;;;;;9.23;97.19;98871.38;1812903;79;21056;-81
2024/04/18 02:15:35;;;;;;;12.63;5.50;;;;;;;9.21;97.48;98869.70;1803123;79;21488;-82
2024/04/18 02:18:05;;;;;;;10.53;6.40;;;;;;;9.20;97.65;98865.30;1811324;79;21491;-79
2024/04/18 02:20:43;;;;;;;8.63;6.25;;;;;;;9.16;97.72;98861.35;1805791;79;21057;-81
2024/04/18 02:23:22;;;;;;;8.08;6.22;;;;;;;9.14;97.67;98865.37;1787559;79;21058;-79
2024/04/18 02:25:50;;;;;;;9.65;6.20;;;;;;;9.13;97.94;98864.53;1787215;79;21014;-81
2024/04/18 02:28:19;;;;;;;9.60;6.75;;;;;;;9.13;98.16;98863.17;1787482;80;21037;-73
2024/04/18 02:30:47;;;;;;;14.13;9.60;;;;;;;9.11;98.45;98858.99;1787419;79;21085;-73
2024/04/18 02:33:16;;;;;;;16.85;10.35;;;;;;;9.09;98.80;98860.55;1787413;79;21041;-72
2024/04/18 02:35:47;;;;;;;19.27;11.93;;;;;;;9.04;99.04;98865.86;1787317;79;21037;-73
2024/04/18 02:38:34;;;;;;;18.60;13.30;;;;;;;9.03;99.48;98861.98;1787554;80;21029;-71
2024/04/18 02:41:05;;;;;;;18.48;13.50;;;;;;;9.02;99.91;98855.69;1787747;80;21018;-70
2024/04/18 02:43:52;;;;;;;21.27;14.70;;;;;;;9.03;100.00;98853.27;1787572;79;21029;-74
2024/04/18 02:46:21;;;;;;;20.85;14.58;;;;;;;9.01;100.00;98849.09;1787420;80;21057;-75
2024/04/18 02:49:08;;;;;;;21.73;15.00;;;;;;;9.01;100.00;98862.74;1787836;80;21022;-77
2024/04/18 02:51:38;;;;;;;24.45;15.23;;;;;;;9.02;100.00;98857.05;1784436;79;21085;-75
2024/04/18 02:54:12;;;;;;;22.42;14.75;;;;;;;8.99;100.00;98860.77;1787788;79;21466;-76
2024/04/18 02:56:41;;;;;;;29.25;14.93;;;;;;;8.98;100.00;98849.01;1787646;79;20982;-77
2024/04/18 02:59:10;;;;;;;21.40;14.53;;;;;;;8.98;100.00;98849.01;1765797;79;21532;-76
2024/04/18 03:01:51;;;;;;;21.02;14.63;;;;;;;9.00;100.00;98840.05;1787500;79;21454;-77
2024/04/18 03:04:19;;;;;;;22.15;15.10;;;;;;;9.02;100.00;98837.09;1787625;80;21006;-78
2024/04/18 03:06:48;;;;;;;20.10;14.10;;;;;;;9.01;100.00;98840.89;1787627;79;21014;-78
2024/04/18 03:09:16;;;;;;;23.30;14.25;;;;;;;9.02;100.00;98839.83;1787576;79;21078;-77
2024/04/18 03:11:53;;;;;;;;;;;;;;;9.00;100.00;98837.33;1790282;79;20997;-78
2024/04/18 03:14:42;;;;;;;21.48;14.60;;;;;;;8.97;100.00;98828.22;1787674;79;20151;-77
2024/04/18 03:17:10;;;;;;;20.70;14.25;;;;;;;8.91;100.00;98834.58;1787575;79;21044;-79
2024/04/18 03:19:49;;;;;;;20.80;12.85;;;;;;;8.91;100.00;98840.05;1758441;78;20991;-78
2024/04/18 03:22:26;;;;;;;21.90;13.45;;;;;;;8.92;100.00;98844.45;1796562;79;21080;-80
2024/04/18 03:25:00;;;;;;;20.62;13.28;;;;;;;8.90;100.00;98838.38;1798294;79;20990;-78
2024/04/18 03:27:29;;;;;;;18.82;12.47;;;;;;;8.87;100.00;98833.36;1798199;80;20993;-79
2024/04/18 03:29:58;;;;;;;20.70;12.60;;;;;;;8.87;100.00;98835.56;1798164;80;20989;-79
2024/04/18 03:32:36;;;;;;;19.40;12.65;;;;;;;8.87;100.00;98836.92;1798210;80;21005;-80
2024/04/18 03:35:05;;;;;;;20.30;13.18;;;;;;;8.89;100.00;98840.27;1798246;79;21041;-79
2024/04/18 03:37:35;;;;;;;23.18;14.20;;;;;;;8.88;100.00;98845.95;1798089;79;21077;-80
2024/04/18 03:40:08;;;;;;;21.25;15.10;;;;;;;8.85;100.00;98851.34;1776901;79;21007;-80
2024/04/18 03:42:36;;;;;;;22.48;14.68;;;;;;;8.86;100.00;98846.18;1798373;79;21045;-80
2024/04/18 03:45:05;;;;;;;18.62;14.20;;;;;;;8.87;100.00;98840.19;1798082;79;21471;-79
2024/04/18 03:47:34;;;;;;;19.92;13.83;;;;;;;8.86;100.00;98833.89;1798312;79;21033;-78
2024/04/18 03:50:08;;;;;;;22.77;14.47;;;;;;;8.83;100.00;98823.95;1798238;79;21073;-77
2024/04/18 03:52:39;;;;;;;21.65;14.47;;;;;;;8.84;100.00;98834.65;1798177;79;21072;-79
2024/04/18 03:55:26;;;;;;;20.80;14.23;;;;;;;8.86;100.00;98836.63;1798271;79;21061;-80
2024/04/18 03:57:54;;;;;;;21.82;14.65;;;;;;;8.89;100.00;98834.80;1798086;79;21499;-79
2024/04/18 04:00:41;;;;;;;22.55;14.93;;;;;;;8.88;100.00;98829.56;1798295;80;20990;-82
2024/04/18 04:03:11;;;;;;;20.02;13.53;;;;;;;8.87;100.00;98822.44;1776386;80;21070;-81
2024/04/18 04:05:39;;;;;;;18.70;13.38;;;;;;;8.88;100.00;98828.20;1798215;79;20998;-81
2024/04/18 04:08:09;;;;;;;22.95;14.03;;;;;;;8.87;100.00;98830.10;1798235;80;21053;-80
2024/04/18 04:10:43;;;;;;;21.42;13.98;;;;;;;8.90;100.00;98832.91;1798260;80;21064;-79
2024/04/18 04:13:11;;;;;;;22.82;14.00;;;;;;;8.89;100.00;98838.06;1799167;79;21246;-79
2024/04/18 04:15:49;;;;;;;19.87;13.50;;;;;;;8.90;100.00;98832.91;1800074;79;21014;-79
2024/04/18 04:18:35;;;;;;;22.25;14.00;;;;;;;8.89;100.00;98829.88;1719586;82;21039;-80
2024/04/18 04:21:22;;;;;;;23.05;14.20;;;;;;;8.90;100.00;98826.91;1783434;79;21038;-79
2024/04/18 04:23:51;;;;;;;21.57;14.13;;;;;;;8.88;100.00;98825.47;1798092;79;21061;-79
2024/04/18 04:26:20;;;;;;;21.15;14.73;;;;;;;8.86;100.00;98818.87;1798319;80;21020;-77
2024/04/18 04:28:48;;;;;;;20.60;13.72;;;;;;;8.88;100.00;98815.91;1798118;80;20997;-77
2024/04/18 04:31:16;;;;;;;18.45;12.65;;;;;;;8.87;100.00;98816.97;1776023;80;21085;-81
2024/04/18 04:33:45;;;;;;;17.90;12.70;;;;;;;8.87;100.00;98814.24;1798171;80;21009;-80
2024/04/18 04:36:13;;;;;;;20.17;13.03;;;;;;;8.89;100.00;98812.13;1798221;79;21104;-78
2024/04/18 04:38:42;;;;;;;18.55;12.70;;;;;;;8.92;100.00;98808.11;1776210;80;21434;-78
2024/04/18 04:41:11;;;;;;;17.15;12.25;;;;;;;8.91;100.00;98808.63;1776190;80;21437;-78
2024/04/18 04:43:40;;;;;;;20.25;12.50;;;;;;;8.92;100.00;98813.03;1797856;79;20970;-78
2024/04/18 04:46:10;;;;;;;17.45;12.78;;;;;;;8.92;100.00;98803.48;1797269;79;21002;-79
2024/04/18 04:48:38;;;;;;;17.23;12.05;;;;;;;8.96;100.00;98810.69;1797839;79;21449;-76
2024/04/18 04:51:15;;;;;;;19.77;12.20;;;;;;;8.96;100.00;98814.25;1798050;79;21495;-75
2024/04/18 04:53:44;;;;;;;17.82;11.97;;;;;;;8.98;100.00;98812.13;1797949;79;21065;-75
2024/04/18 04:56:14;;;;;;;15.98;10.10;;;;;;;8.99;100.00;98802.04;1794796;80;21069;-75
2024/04/18 04:58:44;;;;;;;15.98;11.30;;;;;;;8.98;100.00;98803.94;1794876;80;21013;-74
2024/04/18 05:01:12;;;;;;;17.62;12.45;;;;;;;8.94;100.00;98802.72;1776389;80;21511;-76
2024/04/18 05:03:41;;;;;;;20.95;13.00;;;;;;;8.94;100.00;98801.35;1798063;80;21418;-75
2024/04/18 05:06:25;;;;;;;20.68;12.60;;;;;;;8.97;100.00;98797.33;1798089;79;21041;-74
2024/04/18 05:09:13;;;;;;;20.48;15.63;;;;;;;9.00;100.00;98798.25;1798012;79;21072;-74
2024/04/18 05:11:41;;;;;;;22.42;14.35;;;;;;;9.00;100.00;98797.72;1776084;80;21054;-74
2024/04/18 05:14:28;;;;;;;14.90;9.60;;;;;;;9.02;100.00;98807.05;1798250;80;20990;-72
2024/04/18 05:16:58;;;;;;;23.62;12.73;;;;;;;9.02;100.00;98799.69;1797946;79;21434;-75
2024/04/18 05:19:27;;;;;;;77.55;54.23;;;;;;;9.02;100.00;98800.22;1798248;79;21022;-75
2024/04/18 05:21:55;;;;;;;20.97;13.03;;;;;;;9.03;100.00;98798.63;1803132;79;21594;-75
2024/04/18 05:24:35;;;;;;;16.25;10.72;;;;;;;9.04;100.00;98802.20;1812271;79;21024;-74
2024/04/18 05:27:04;;;;;;;16.45;10.70;;;;;;;9.02;100.00;98797.48;1812374;79;20974;-75
2024/04/18 05:32:19;;;;;;;16.52;11.60;;;;;;;9.04;100.00;98808.49;1812511;79;21053;-77
2024/04/18 05:35:06;;;;;;;16.35;10.53;;;;;;;9.04;100.00;98816.69;1812622;79;21959;-78
2024/04/18 05:37:34;;;;;;;42.23;28.55;;;;;;;9.04;100.00;98813.13;1812485;79;21032;-77
2024/04/18 05:40:03;;;;;;;20.23;12.10;;;;;;;9.02;100.00;98811.98;1812689;79;21052;-76
2024/04/18 05:42:32;;;;;;;16.25;9.98;;;;;;;9.03;100.00;98806.82;1812475;79;21461;-74
2024/04/18 05:45:10;;;;;;;18.25;9.88;;;;;;;9.03;100.00;98808.72;1812483;79;21005;-76
2024/04/18 05:47:57;;;;;;;12.77;7.83;;;;;;;8.99;100.00;98808.34;1812693;79;21024;-77
2024/04/18 05:50:26;;;;;;;14.10;9.43;;;;;;;8.99;100.00;98808.87;1812525;79;21029;-77
2024/04/18 05:52:54;;;;;;;13.00;9.38;;;;;;;8.97;100.00;98796.80;1812682;79;21385;-77
2024/04/18 05:55:23;;;;;;;13.70;9.55;;;;;;;8.96;100.00;98799.23;1812560;79;20973;-76
2024/04/18 05:57:52;;;;;;;15.72;9.65;;;;;;;8.99;100.00;98792.48;1812578;79;21894;-77
2024/04/18 06:00:39;;;;;;;14.75;9.95;;;;;;;8.98;100.00;98782.61;1812925;79;21001;-77
2024/04/18 06:03:08;;;;;;;15.75;8.93;;;;;;;8.98;100.00;98793.02;1812574;79;21021;-77
2024/04/18 06:05:37;;;;;;;16.70;9.88;;;;;;;8.98;100.00;98794.38;1812354;79;21036;-76
2024/04/18 06:08:14;;;;;;;13.00;8.70;;;;;;;9.00;100.00;98805.91;1794384;79;21433;-77
2024/04/18 06:10:43;;;;;;;13.85;8.70;;;;;;;9.01;100.00;98803.48;1812541;79;21092;-78
2024/04/18 06:13:24;;;;;;;14.03;8.50;;;;;;;9.00;100.00;98813.27;1793911;79;21025;-75
2024/04/18 06:15:51;;;;;;;10.75;7.72;;;;;;;9.02;100.00;98823.44;1812575;79;20989;-78
2024/04/18 06:18:22;;;;;;;11.70;7.62;;;;;;;9.00;100.00;98829.13;1812568;79;21420;-78
2024/04/18 06:20:51;;;;;;;12.45;7.65;;;;;;;9.02;100.00;98824.27;1812483;79;21037;-75
2024/04/18 06:23:19;;;;;;;9.15;7.25;;;;;;;9.01;100.00;98829.44;1791809;79;21014;-75
2024/04/18 06:26:06;;;;;;;9.17;6.97;;;;;;;8.98;100.00;98827.69;1769271;80;21503;-78
2024/04/18 06:28:35;;;;;;;11.57;7.12;;;;;;;8.95;100.00;98819.41;1787569;80;21333;-78
2024/04/18 06:31:06;;;;;;;9.90;6.75;;;;;;;8.93;100.00;98827.00;1787038;79;21611;-78
2024/04/18 06:33:37;;;;;;;11.12;7.05;;;;;;;8.94;100.00;98821.84;1787214;80;21057;-77
2024/04/18 06:36:06;;;;;;;10.98;7.53;;;;;;;8.98;100.00;98823.59;1787534;79;21037;-77
2024/04/18 06:38:36;;;;;;;9.70;6.58;;;;;;;9.01;100.00;98826.70;1787561;80;21079;-76
2024/04/18 06:41:05;;;;;;;9.43;6.12;;;;;;;9.04;100.00;98825.41;1787624;80;20970;-78
2024/04/18 06:43:35;;;;;;;11.43;7.10;;;;;;;9.03;100.00;98830.05;1785748;80;21048;-78
2024/04/18 06:46:04;;;;;;;8.98;6.40;;;;;;;9.04;100.00;98826.25;1787519;80;21025;-78
2024/04/18 06:48:32;;;;;;;8.73;6.15;;;;;;;9.06;100.00;98824.12;1765762;80;21056;-76
2024/04/18 06:51:01;;;;;;;10.00;6.72;;;;;;;9.07;100.00;98824.42;1787347;79;21017;-76
2024/04/18 06:53:29;;;;;;;9.85;6.50;;;;;;;9.06;100.00;98820.03;1787451;79;21013;-77
2024/04/18 06:56:00;;;;;;;10.00;6.20;;;;;;;9.11;100.00;98812.55;1787552;80;21089;-77
2024/04/18 06:58:29;;;;;;;9.98;5.90;;;;;;;9.13;100.00;98809.06;1787478;80;21016;-77
2024/04/18 07:00:58;;;;;;;11.63;6.42;;;;;;;9.13;100.00;98803.59;1787537;79;21057;-75
2024/04/18 07:03:26;;;;;;;8.95;6.60;;;;;;;9.12;100.00;98799.19;1787509;80;21455;-77
2024/04/18 07:05:55;;;;;;;8.33;6.10;;;;;;;9.11;100.00;98807.92;1787268;80;20990;-76
2024/04/18 07:08:27;;;;;;;11.48;6.72;;;;;;;9.13;100.00;98807.16;1787296;79;21018;-76
2024/04/18 07:10:55;;;;;;;11.30;6.42;;;;;;;9.12;100.00;98808.75;1787504;80;21053;-75
2024/04/18 07:13:31;;;;;;;10.90;6.12;;;;;;;9.10;100.00;98810.84;1787486;79;21013;-75
2024/04/18 07:16:03;;;;;;;10.50;6.20;;;;;;;9.09;100.00;98818.20;1787293;80;21509;-77
2024/04/18 07:18:51;;;;;;;7.97;5.53;;;;;;;9.11;100.00;98822.11;1787580;79;21041;-75
2024/04/18 07:21:19;;;;;;;11.95;5.72;;;;;;;9.07;100.00;98820.33;1787361;80;21002;-76
2024/04/18 07:23:48;;;;;;;6.33;5.03;;;;;;;9.05;100.00;98814.27;1797137;79;21013;-75
2024/04/18 07:26:18;;;;;;;10.45;5.30;;;;;;;9.07;100.00;98814.03;1794754;80;21017;-77
2024/04/18 07:28:47;;;;;;;8.48;5.05;;;;;;;9.07;100.00;98820.86;1798214;80;21013;-77
2024/04/18 07:31:15;;;;;;;10.72;5.12;;;;;;;9.07;100.00;98818.97;1798331;80;21053;-73
2024/04/18 07:33:46;;;;;;;7.92;4.80;;;;;;;9.06;100.00;98818.66;1794697;79;21037;-74
2024/04/18 07:36:21;;;;;;;9.13;4.40;;;;;;;9.05;100.00;98821.63;1797983;80;21485;-76
2024/04/18 07:38:49;;;;;;;8.70;4.83;;;;;;;9.04;100.00;98820.78;1798065;80;20989;-73
2024/04/18 07:41:17;;;;;;;6.87;4.92;;;;;;;9.06;100.00;98815.09;1776072;80;21057;-75
2024/04/18 07:43:45;;;;;;;6.80;4.30;;;;;;;9.07;100.00;98818.13;1776301;80;21061;-76
2024/04/18 07:46:14;;;;;;;7.08;4.60;;;;;;;9.05;100.00;98813.42;1798190;80;21013;-76
2024/04/18 07:48:43;;;;;;;8.88;5.10;;;;;;;9.05;100.00;98814.27;1798185;80;21018;-79
2024/04/18 07:51:11;;;;;;;5.10;4.30;;;;;;;9.04;100.00;98815.85;1798076;80;21105;-79
2024/04/18 07:53:40;;;;;;;8.00;4.47;;;;;;;9.05;100.00;98817.52;1798187;80;21057;-78
2024/04/18 07:56:08;;;;;;;8.13;4.80;;;;;;;9.06;100.00;98819.19;1798010;79;21434;-77
2024/04/18 07:58:39;;;;;;;9.20;5.03;;;;;;;9.08;100.00;98826.10;1792561;79;21037;-79
2024/04/18 08:01:20;;;;;;;6.08;4.08;;;;;;;9.10;100.00;98823.14;1759259;81;21468;-79
2024/04/18 08:03:56;;;;;;;5.45;4.00;;;;;;;9.09;100.00;98815.48;1723668;80;21505;-79
2024/04/18 08:06:26;;;;;;;6.62;4.67;;;;;;;9.09;100.00;98813.28;1764712;80;21036;-82
2024/04/18 08:09:02;;;;;;;7.25;4.28;;;;;;;9.13;100.00;98805.80;1764663;80;21079;-82
2024/04/18 08:11:34;;;;;;;6.17;4.33;;;;;;;9.12;100.00;98806.02;1754209;81;21018;-81
2024/04/18 08:14:04;;;;;;;6.58;4.03;;;;;;;9.12;100.00;98808.22;1787929;80;21024;-76
2024/04/18 08:16:34;;;;;;;8.18;4.30;;;;;;;9.09;100.00;98809.17;1788963;80;20996;-76
2024/04/18 08:19:03;;;;;;;8.70;4.20;;;;;;;9.11;100.00;98808.45;1789264;80;21004;-78
2024/04/18 08:21:32;;;;;;;5.10;3.62;;;;;;;9.13;100.00;98803.06;1773428;80;21115;-76
2024/04/18 08:24:01;;;;;;;5.47;3.72;;;;;;;9.13;100.00;98804.42;1745484;81;21059;-79
2024/04/18 08:26:30;;;;;;;5.55;4.08;;;;;;;9.11;100.00;98792.89;1765884;81;21075;-73
2024/04/18 08:28:59;;;;;;;7.75;4.30;;;;;;;9.11;100.00;98787.95;1766039;81;21128;-77
2024/04/18 08:31:34;;;;;;;5.95;3.52;;;;;;;9.10;100.00;98789.86;1766043;81;21027;-76
2024/04/18 08:34:01;;;;;;;7.42;3.80;;;;;;;9.09;100.00;98784.05;1734521;81;21456;-77
2024/04/18 08:36:32;;;;;;;6.45;3.70;;;;;;;9.07;100.00;98790.28;1691584;84;21020;-76
2024/04/18 08:39:00;;;;;;;5.78;3.37;;;;;;;9.06;100.00;98787.78;1734497;83;21065;-78
2024/04/18 08:41:29;;;;;;;8.93;4.10;;;;;;;9.04;100.00;98784.44;1759595;81;21058;-77
2024/04/18 08:44:04;;;;;;;7.05;4.20;;;;;;;9.03;100.00;98784.97;1728679;81;21423;-79
2024/04/18 08:46:37;;;;;;;5.40;3.87;;;;;;;9.05;100.00;98785.58;1759564;81;21059;-78
2024/04/18 08:49:16;;;;;;;7.47;3.98;;;;;;;9.07;100.00;98780.72;1759404;81;21082;-77
2024/04/18 08:51:47;;;;;;;5.50;3.58;;;;;;;9.08;100.00;98776.09;1759272;81;21047;-75
2024/04/18 08:54:16;;;;;;;8.50;3.90;;;;;;;9.05;100.00;98765.62;1727606;81;21055;-78
2024/04/18 08:56:47;;;;;;;7.80;4.12;;;;;;;9.01;100.00;98763.88;1758991;81;21078;-78
2024/04/18 08:59:16;;;;;;;5.85;3.60;;;;;;;9.00;100.00;98758.64;1759607;81;21066;-75
2024/04/18 09:01:45;;;;;;;4.72;3.40;;;;;;;9.00;100.00;98760.00;1759276;81;21030;-77
2024/04/18 09:04:13;;;;;;;7.83;4.53;;;;;;;8.98;100.00;98756.13;1759372;81;21082;-75
2024/04/18 09:06:42;;;;;;;5.70;3.90;;;;;;;8.99;100.00;98759.17;1759290;81;21467;-76
2024/04/18 09:09:14;;;;;;;6.30;3.50;;;;;;;9.01;100.00;98752.11;1759615;81;21046;-74
2024/04/18 09:11:47;;;;;;;4.87;3.37;;;;;;;9.01;100.00;98744.75;1755083;81;21559;-74
2024/04/18 09:14:17;;;;;;;7.20;4.12;;;;;;;9.01;100.00;98733.83;1714484;84;21064;-74
2024/04/18 09:16:45;;;;;;;4.97;3.60;;;;;;;9.00;100.00;98729.95;1724545;83;21032;-72
2024/04/18 09:19:17;;;;;;;7.80;3.77;;;;;;;8.98;100.00;98722.52;1724668;83;21048;-75
2024/04/18 09:21:46;;;;;;;6.85;4.25;;;;;;;9.00;100.00;98723.13;1724630;83;21089;-72
2024/04/18 09:24:15;;;;;;;5.58;3.10;;;;;;;9.05;100.00;98713.72;1724131;83;21115;-73
2024/04/18 09:26:45;;;;;;;4.92;3.42;;;;;;;9.11;100.00;98709.56;1724632;83;21044;-74
2024/04/18 09:29:14;;;;;;;4.60;3.35;;;;;;;9.14;100.00;98700.91;1673867;83;21449;-74
2024/04/18 09:31:43;;;;;;;6.12;3.10;;;;;;;9.19;100.00;98710.61;1704453;83;21510;-74
2024/04/18 09:34:14;;;;;;;6.58;3.02;;;;;;;9.25;100.00;98718.42;1724604;83;21103;-73
2024/04/18 09:36:43;;;;;;;3.98;2.92;;;;;;;9.29;100.00;98724.27;1724561;83;21056;-71
2024/04/18 09:39:28;;;;;;;4.45;3.02;;;;;;;9.28;100.00;98717.12;1724604;83;21076;-73
2024/04/18 09:42:06;;;;;;;4.45;2.67;;;;;;;9.27;100.00;98709.99;1704650;83;21071;-73
2024/04/18 09:44:34;;;;;;;3.92;2.58;;;;;;;9.24;100.00;98698.99;1705205;83;21064;-72
2024/04/18 09:47:04;;;;;;;5.30;3.05;;;;;;;9.19;100.00;98696.95;1724642;83;21084;-72
2024/04/18 09:49:33;;;;;;;4.67;3.08;;;;;;;9.18;100.00;98688.45;1724521;83;21032;-73
2024/04/18 09:52:02;;;;;;;4.58;2.60;;;;;;;9.22;100.00;98694.29;1724594;83;21099;-73
2024/04/18 09:54:31;;;;;;;5.20;2.40;;;;;;;9.23;99.93;98691.02;1724637;83;21080;-70
2024/04/18 09:57:00;;;;;;;6.25;2.65;;;;;;;9.20;98.98;98690.42;1724531;83;22052;-71
2024/04/18 09:59:29;;;;;;;5.08;2.65;;;;;;;9.17;98.65;98679.95;1724537;83;21041;-71
2024/04/18 10:02:00;;;;;;;4.62;2.60;;;;;;;9.15;98.39;98680.72;1724644;83;21040;-72
2024/04/18 10:04:29;;;;;;;7.40;2.60;;;;;;;9.12;98.02;98673.52;1724579;83;21099;-72
2024/04/18 10:06:58;;;;;;;7.35;3.12;;;;;;;9.08;97.79;98674.48;1724857;83;21072;-71
2024/04/18 10:09:27;;;;;;;5.62;2.83;;;;;;;9.05;97.81;98670.84;1724717;83;21080;-71
2024/04/18 10:11:55;;;;;;;5.42;2.60;;;;;;;9.08;98.31;98663.55;1724356;83;21062;-72
2024/04/18 10:14:24;;;;;;;8.25;2.90;;;;;;;9.07;98.09;98669.24;1773483;81;21031;-71
2024/04/18 10:16:52;;;;;;;7.05;2.47;;;;;;;9.04;98.03;98676.00;1773312;81;21078;-72
2024/04/18 10:19:22;;;;;;;5.55;2.60;;;;;;;9.00;97.84;98659.77;1773736;81;21007;-70
2024/04/18 10:21:58;;;;;;;4.62;2.90;;;;;;;8.97;97.72;98652.03;1754366;81;21007;-71
2024/04/18 10:24:34;;;;;;;3.25;2.20;;;;;;;8.97;98.05;98656.13;1726024;81;21616;-72
2024/04/18 10:27:08;;;;;;;6.33;2.80;;;;;;;8.96;97.88;98661.83;1736432;82;21564;-72
2024/04/18 10:29:37;;;;;;;6.20;3.33;;;;;;;8.91;97.51;98659.78;1736476;82;21043;-72
2024/04/18 10:32:06;;;;;;;6.50;2.72;;;;;;;8.89;97.71;98648.26;1752311;81;21606;-71
2024/04/18 10:34:35;;;;;;;4.80;2.80;;;;;;;8.86;98.04;98644.09;1731473;82;21478;-73
2024/04/18 10:37:06;;;;;;;4.35;2.83;;;;;;;8.86;98.36;98656.38;1752378;82;21050;-72
2024/04/18 10:39:37;;;;;;;3.95;2.90;;;;;;;8.86;98.50;98651.45;1752252;82;21085;-77
2024/04/18 10:42:10;;;;;;;5.20;3.33;;;;;;;8.85;98.79;98652.52;1752553;82;21066;-71
2024/04/18 10:44:39;;;;;;;11.18;4.35;;;;;;;8.93;100.00;98667.75;1752332;82;21070;-75
2024/04/18 10:47:08;;;;;;;7.53;4.40;;;;;;;8.99;100.00;98658.11;1752553;82;21042;-76
2024/04/18 10:49:38;;;;;;;5.55;3.22;;;;;;;8.91;99.35;98651.59;1731792;82;21097;-75
2024/04/18 10:52:08;;;;;;;6.28;3.10;;;;;;;8.82;99.30;98652.44;1752126;82;21082;-74
2024/04/18 10:54:37;;;;;;;5.12;2.77;;;;;;;8.79;99.50;98642.51;1752630;81;21098;-76
2024/04/18 10:57:06;;;;;;;24.20;17.35;;;;;;;8.73;99.56;98637.43;1752510;82;21105;-82
2024/04/18 10:59:38;;;;;;;5.33;3.50;;;;;;;8.68;99.73;98630.98;1731662;82;21043;-78
2024/04/18 11:02:09;;;;;;;5.67;3.35;;;;;;;8.63;99.99;98647.22;1752136;82;21081;-76
2024/04/18 11:04:38;;;;;;;6.62;3.52;;;;;;;8.60;100.00;98659.96;1752345;82;21616;-79
2024/04/18 11:07:06;;;;;;;6.37;3.20;;;;;;;8.59;100.00;98676.88;1731468;82;21062;-77
2024/04/18 11:09:38;;;;;;;9.60;3.52;;;;;;;8.57;100.00;98684.45;1752523;82;21042;-79
2024/04/18 11:12:06;;;;;;;5.50;3.65;;;;;;;8.55;100.00;98669.67;1763761;80;21079;-78
2024/04/18 11:14:36;;;;;;;5.42;2.80;;;;;;;8.51;100.00;98652.61;1800129;79;20980;-76
2024/04/18 11:17:04;;;;;;;4.45;3.27;;;;;;;8.52;100.00;98652.37;1799770;79;20988;-78
2024/04/18 11:19:37;;;;;;;4.67;3.10;;;;;;;8.54;100.00;98661.70;1780807;79;20991;-77
2024/04/18 11:22:06;;;;;;;5.22;3.35;;;;;;;8.57;100.00;98657.16;1799858;79;21047;-78
2024/04/18 11:24:35;;;;;;;6.55;3.15;;;;;;;8.55;100.00;98656.02;1779881;80;21069;-78
2024/04/18 11:27:06;;;;;;;4.45;3.15;;;;;;;8.53;100.00;98651.84;1780234;80;21063;-77
2024/04/18 11:29:37;;;;;;;7.20;3.40;;;;;;;8.50;100.00;98646.31;1799734;79;21020;-77
2024/04/18 11:32:10;;;;;;;5.45;3.12;;;;;;;8.45;100.00;98656.22;1799726;79;21105;-80
2024/04/18 11:34:39;;;;;;;4.37;2.65;;;;;;;8.44;100.00;98648.55;1799973;79;21012;-76
2024/04/18 11:37:09;;;;;;;5.05;3.00;;;;;;;8.44;100.00;98643.63;1799835;79;21028;-77
2024/04/18 11:39:40;;;;;;;6.22;3.10;;;;;;;8.50;100.00;98640.02;1799991;79;21045;-75
2024/04/18 11:42:09;;;;;;;5.80;3.58;;;;;;;8.48;100.00;98640.78;1799781;79;21463;-79
2024/04/18 11:44:38;;;;;;;6.62;4.42;;;;;;;8.46;100.00;98637.44;1799556;79;21601;-78
2024/04/18 11:47:07;;;;;;;6.35;3.20;;;;;;;8.48;100.00;98640.25;1799720;80;21067;-77
2024/04/18 11:49:37;;;;;;;3.75;3.05;;;;;;;8.52;100.00;98640.62;1799977;79;21047;-77
2024/04/18 11:52:09;;;;;;;4.20;2.83;;;;;;;8.52;100.00;98652.37;1800160;79;21024;-79
2024/04/18 11:54:39;;;;;;;3.60;2.72;;;;;;;8.55;100.00;98654.66;1794271;80;21059;-77